createdAt,value
2019-05-17T00:02:22.649Z,12.98
2019-05-17T00:05:28.203Z,12.88
2019-05-17T00:08:34.942Z,12.65
2019-05-17T00:11:39.645Z,12.64
2019-05-17T00:14:44.399Z,12.67
2019-05-17T00:17:49.586Z,12.70
2019-05-17T00:20:56.987Z,12.76
2019-05-17T00:24:01.949Z,12.79
2019-05-17T00:27:07.259Z,12.67
2019-05-17T00:30:12.649Z,12.47
2019-05-17T00:33:17.726Z,12.36
2019-05-17T00:36:22.470Z,12.33
2019-05-17T00:39:27.817Z,12.15
2019-05-17T00:42:32.946Z,12.14
2019-05-17T00:45:38.515Z,12.18
2019-05-17T00:48:43.504Z,12.16
2019-05-17T00:51:48.267Z,12.09
2019-05-17T00:54:52.987Z,12.08
2019-05-17T00:58:01.259Z,12.14
2019-05-17T01:01:08.432Z,12.09
2019-05-17T01:04:13.336Z,12.13
2019-05-17T01:07:18.097Z,12.02
2019-05-17T01:10:23.312Z,11.90
2019-05-17T01:13:28.783Z,11.80
2019-05-17T01:16:33.539Z,11.65
2019-05-17T01:19:41.113Z,11.67
2019-05-17T01:22:47.404Z,11.67
2019-05-17T01:25:52.447Z,11.77
2019-05-17T01:28:57.739Z,11.78
2019-05-17T01:32:02.856Z,11.73
2019-05-17T01:35:08.301Z,11.76
2019-05-17T01:38:13.033Z,11.77
2019-05-17T01:41:17.885Z,11.79
2019-05-17T01:44:22.614Z,11.76
2019-05-17T01:47:27.438Z,11.71
2019-05-17T01:50:32.181Z,11.74
2019-05-17T01:53:38.034Z,11.67
2019-05-17T01:56:46.177Z,11.75
2019-05-17T01:59:50.932Z,11.80
2019-05-17T02:02:57.719Z,11.69
2019-05-17T02:06:02.649Z,11.54
2019-05-17T02:09:07.755Z,11.49
2019-05-17T02:12:12.476Z,11.43
2019-05-17T02:15:18.086Z,11.50
2019-05-17T02:18:22.879Z,11.48
2019-05-17T02:21:27.650Z,11.56
2019-05-17T02:24:32.540Z,11.49
2019-05-17T02:27:41.266Z,11.42
2019-05-17T02:30:45.718Z,11.36
2019-05-17T02:33:53.403Z,11.40
2019-05-17T02:36:57.189Z,11.37
2019-05-17T02:40:07.706Z,11.39
2019-05-17T02:43:09.144Z,11.38
2019-05-17T02:46:13.946Z,11.36
2019-05-17T02:49:19.025Z,11.33
2019-05-17T02:52:25.046Z,11.34
2019-05-17T02:55:32.248Z,11.43
2019-05-17T02:58:36.224Z,11.41
2019-05-17T03:01:44.167Z,11.40
2019-05-17T03:04:48.190Z,11.38
2019-05-17T03:07:53.090Z,11.37
2019-05-17T03:10:57.918Z,11.41
2019-05-17T03:14:04.239Z,11.31
2019-05-17T03:17:09.972Z,11.18
2019-05-17T03:20:15.341Z,11.06
2019-05-17T03:23:23.194Z,10.93
2019-05-17T03:26:26.662Z,11.04
2019-05-17T03:29:33.447Z,11.05
2019-05-17T03:32:46.447Z,11.06
2019-05-17T03:35:47.343Z,10.87
2019-05-17T03:38:53.410Z,10.72
2019-05-17T03:41:58.912Z,10.54
2019-05-17T03:45:03.886Z,10.55
2019-05-17T03:48:08.738Z,10.51
2019-05-17T03:51:13.537Z,10.58
2019-05-17T03:54:22.434Z,10.70
2019-05-17T03:57:26.162Z,10.82
2019-05-17T04:00:34.862Z,10.72
2019-05-17T04:03:37.601Z,10.83
2019-05-17T04:06:43.589Z,10.82
2019-05-17T04:09:49.109Z,10.95
2019-05-17T04:12:53.951Z,11.01
2019-05-17T04:15:58.724Z,11.01
2019-05-17T04:19:03.764Z,11.03
2019-05-17T04:22:08.600Z,11.19
2019-05-17T04:25:14.436Z,11.19
2019-05-17T04:28:22.640Z,11.17
2019-05-17T04:31:26.127Z,11.25
2019-05-17T04:34:33.571Z,11.31
2019-05-17T04:37:38.685Z,11.38
2019-05-17T04:40:43.750Z,11.47
2019-05-17T04:43:48.485Z,11.38
2019-05-17T04:46:54.614Z,11.51
2019-05-17T04:49:59.413Z,11.60
2019-05-17T04:53:04.365Z,11.68
2019-05-17T04:56:09.419Z,11.73
2019-05-17T04:59:15.327Z,11.81
2019-05-17T05:02:23.398Z,12.03
2019-05-17T05:05:26.581Z,11.99
2019-05-17T05:08:33.028Z,11.99
2019-05-17T05:11:51.928Z,12.14
2019-05-17T05:14:44.313Z,12.34
2019-05-17T05:17:49.067Z,12.38
2019-05-17T05:20:54.891Z,12.46
2019-05-17T05:24:02.323Z,12.55
2019-05-17T05:27:06.800Z,12.61
2019-05-17T05:30:12.614Z,12.77
2019-05-17T05:33:18.093Z,12.80
2019-05-17T05:36:23.103Z,12.82
2019-05-17T05:39:27.873Z,12.78
2019-05-17T05:42:32.740Z,12.75
2019-05-17T05:45:37.803Z,12.75
2019-05-17T05:48:42.947Z,12.78
2019-05-17T05:51:48.707Z,12.74
2019-05-17T05:54:53.773Z,12.73
2019-05-17T05:57:58.547Z,12.76
2019-05-17T06:01:03.536Z,12.60
2019-05-17T06:04:08.377Z,12.63
2019-05-17T06:07:13.519Z,12.81
2019-05-17T06:10:18.747Z,12.91
2019-05-17T06:13:23.890Z,13.00
2019-05-17T06:16:28.707Z,13.15
2019-05-17T06:19:33.487Z,13.35
2019-05-17T06:22:38.232Z,13.47
2019-05-17T06:25:43.992Z,13.56
2019-05-17T06:28:48.933Z,13.68
2019-05-17T06:31:54.021Z,13.71
2019-05-17T06:40:32.312Z,13.88
2019-05-17T06:43:41.490Z,13.81
2019-05-17T06:46:47.860Z,13.97
2019-05-17T06:49:53.969Z,13.95
2019-05-17T06:53:02.910Z,14.02
2019-05-17T06:56:07.081Z,14.13
2019-05-17T06:59:12.163Z,14.24
2019-05-17T07:02:20.786Z,14.39
2019-05-17T07:05:29.683Z,14.44
2019-05-17T07:08:40.223Z,14.60
2019-05-17T07:12:30.668Z,14.54
2019-05-17T07:15:47.939Z,14.74
2019-05-17T07:19:35.204Z,14.97
2019-05-17T07:26:12.755Z,15.06
2019-05-17T07:29:19.409Z,15.09
2019-05-17T07:32:24.307Z,15.10
2019-05-17T07:35:30.034Z,15.30
2019-05-17T07:38:35.317Z,15.37
2019-05-17T07:41:45.746Z,15.74
2019-05-17T07:44:57.021Z,15.89
2019-05-17T07:48:03.101Z,16.02
2019-05-17T07:51:10.128Z,16.09
2019-05-17T07:54:19.694Z,16.06
2019-05-17T07:57:24.871Z,16.46
2019-05-17T08:00:51.427Z,16.42
2019-05-17T08:04:02.355Z,16.42
2019-05-17T08:07:10.411Z,16.59
2019-05-17T08:10:23.882Z,16.67
2019-05-17T08:13:39.853Z,16.82
2019-05-17T08:16:46.446Z,16.76
2019-05-17T08:19:51.306Z,16.76
2019-05-17T08:23:05.124Z,16.66
2019-05-17T08:26:13.837Z,16.66
2019-05-17T08:29:30.511Z,16.64
2019-05-17T08:33:02.704Z,16.41
2019-05-17T08:36:23.050Z,16.54
2019-05-17T08:40:01.284Z,16.85
2019-05-17T08:43:16.491Z,16.77
2019-05-17T08:46:27.004Z,16.74
2019-05-17T08:49:35.126Z,16.66
2019-05-17T08:52:50.415Z,16.59
2019-05-17T08:56:01.923Z,16.64
2019-05-17T08:59:09.431Z,17.24
2019-05-17T09:02:14.700Z,17.24
2019-05-17T09:05:30.078Z,17.70
2019-05-17T09:08:34.241Z,17.78
2019-05-17T09:11:39.614Z,17.85
2019-05-17T09:14:44.879Z,18.17
2019-05-17T09:17:50.029Z,18.07
2019-05-17T09:21:21.702Z,17.71
2019-05-17T09:24:26.838Z,17.63
2019-05-17T09:27:31.953Z,17.69
2019-05-17T09:30:36.889Z,17.97
2019-05-17T09:33:49.721Z,18.48
2019-05-17T09:36:54.784Z,18.67
2019-05-17T09:40:00.093Z,18.79
2019-05-17T09:43:05.898Z,19.01
2019-05-17T09:46:11.143Z,18.98
2019-05-17T09:49:27.288Z,19.23
2019-05-17T09:52:33.187Z,18.93
2019-05-17T09:55:39.774Z,19.22
2019-05-17T09:58:44.800Z,19.30
2019-05-17T10:05:31.309Z,19.50
2019-05-17T10:08:38.929Z,19.18
2019-05-17T10:11:55.602Z,19.39
2019-05-17T10:15:04.501Z,19.61
2019-05-17T10:18:46.875Z,19.47
2019-05-17T10:29:55.420Z,19.88
2019-05-17T10:33:15.069Z,20.03
2019-05-17T10:36:34.966Z,20.20
2019-05-17T10:39:57.742Z,20.22
2019-05-17T10:43:22.726Z,20.14
2019-05-17T10:47:19.501Z,20.08
2019-05-17T10:51:09.652Z,20.29
2019-05-17T10:54:20.694Z,20.25
2019-05-17T10:57:32.294Z,20.24
2019-05-17T11:00:41.180Z,20.55
2019-05-17T11:03:50.252Z,19.87
2019-05-17T11:07:38.092Z,20.10
2019-05-17T11:10:44.949Z,20.47
2019-05-17T11:13:53.814Z,21.07
2019-05-17T11:17:02.685Z,21.24
2019-05-17T11:24:05.678Z,21.57
2019-05-17T11:27:10.682Z,21.57
2019-05-17T11:30:15.993Z,21.40
2019-05-17T11:33:20.721Z,20.96
2019-05-17T11:36:25.722Z,21.03
2019-05-17T11:39:30.731Z,20.96
2019-05-17T11:42:35.824Z,21.03
2019-05-17T11:45:40.797Z,21.27
2019-05-17T11:48:45.565Z,21.39
2019-05-17T11:51:50.304Z,21.66
2019-05-17T11:54:55.207Z,22.00
2019-05-17T11:57:59.926Z,22.18
2019-05-17T12:01:04.977Z,22.15
2019-05-17T12:04:10.068Z,22.01
2019-05-17T12:07:14.998Z,22.18
2019-05-17T12:10:20.069Z,22.16
2019-05-17T12:13:25.260Z,22.21
2019-05-17T12:16:30.373Z,22.24
2019-05-17T12:19:37.276Z,22.24
2019-05-17T12:22:42.860Z,22.40
2019-05-17T12:25:47.904Z,22.59
2019-05-17T12:28:53.002Z,22.63
2019-05-17T12:31:58.018Z,22.68
2019-05-17T12:35:03.395Z,22.60
2019-05-17T12:38:08.372Z,22.62
2019-05-17T12:41:13.123Z,22.80
2019-05-17T12:44:17.872Z,22.57
2019-05-17T12:47:22.601Z,22.34
2019-05-17T12:50:27.359Z,22.67
2019-05-17T12:53:32.369Z,22.74
2019-05-17T12:56:37.139Z,23.04
2019-05-17T12:59:41.865Z,23.19
2019-05-17T13:02:46.616Z,23.05
2019-05-17T13:05:51.416Z,22.78
2019-05-17T13:08:56.471Z,22.53
2019-05-17T13:12:01.203Z,22.63
2019-05-17T13:15:06.670Z,23.19
2019-05-17T13:18:11.690Z,23.01
2019-05-17T13:21:16.803Z,23.40
2019-05-17T13:24:21.609Z,23.15
2019-05-17T13:27:27.561Z,22.95
2019-05-17T13:30:32.754Z,22.88
2019-05-17T13:33:37.821Z,22.76
2019-05-17T13:36:42.625Z,22.57
2019-05-17T13:39:47.813Z,22.87
2019-05-17T13:42:53.004Z,22.97
2019-05-17T13:45:57.793Z,23.47
2019-05-17T13:49:03.778Z,24.01
2019-05-17T13:52:08.634Z,24.31
2019-05-17T13:55:13.822Z,24.43
2019-05-17T13:58:18.666Z,24.40
2019-05-17T14:01:23.418Z,24.34
2019-05-17T14:04:28.501Z,24.39
2019-05-17T14:07:33.273Z,24.44
2019-05-17T14:10:38.033Z,24.22
2019-05-17T14:13:42.747Z,24.18
2019-05-17T14:16:47.519Z,24.55
2019-05-17T14:19:52.566Z,24.00
2019-05-17T14:22:58.177Z,23.64
2019-05-17T14:26:03.379Z,23.51
2019-05-17T14:29:08.467Z,23.24
2019-05-17T14:32:14.258Z,22.94
2019-05-17T14:35:19.699Z,22.46
2019-05-17T14:38:24.460Z,22.74
2019-05-17T14:41:29.591Z,22.46
2019-05-17T14:44:34.418Z,22.52
2019-05-17T14:47:39.416Z,23.16
2019-05-17T14:50:44.170Z,23.24
2019-05-17T14:53:49.348Z,23.51
2019-05-17T14:56:54.288Z,23.92
2019-05-17T14:59:59.622Z,24.02
2019-05-17T15:03:07.456Z,23.26
2019-05-17T15:06:11.236Z,23.58
2019-05-17T15:09:15.997Z,23.40
2019-05-17T15:12:28.158Z,23.85
2019-05-17T15:15:28.057Z,24.36
2019-05-17T15:18:33.143Z,23.97
2019-05-17T15:21:38.129Z,24.06
2019-05-17T15:24:42.942Z,24.13
2019-05-17T15:27:47.904Z,24.64
2019-05-17T15:30:52.723Z,24.79
2019-05-17T15:33:57.558Z,25.07
2019-05-17T15:37:02.363Z,25.18
2019-05-17T15:40:07.701Z,24.84
2019-05-17T15:43:12.773Z,24.72
2019-05-17T15:46:17.603Z,24.84
2019-05-17T15:49:22.809Z,25.22
2019-05-17T15:52:27.577Z,25.62
2019-05-17T15:55:32.477Z,24.94
2019-05-17T15:58:37.490Z,25.07
2019-05-17T16:01:42.586Z,24.88
2019-05-17T16:04:47.576Z,24.98
2019-05-17T16:07:53.705Z,24.91
2019-05-17T16:10:58.602Z,24.31
2019-05-17T16:14:04.093Z,24.31
2019-05-17T16:17:08.932Z,24.78
2019-05-17T16:20:16.725Z,24.32
2019-05-17T16:23:23.833Z,23.88
2019-05-17T16:26:28.699Z,23.63
2019-05-17T16:29:33.726Z,24.14
2019-05-17T16:32:38.863Z,24.72
2019-05-17T16:35:43.912Z,25.14
2019-05-17T16:38:49.582Z,24.59
2019-05-17T16:41:54.487Z,24.00
2019-05-17T16:44:59.275Z,23.94
2019-05-17T16:48:04.417Z,24.09
2019-05-17T16:51:09.480Z,23.78
2019-05-17T16:54:14.343Z,23.70
2019-05-17T16:57:19.176Z,23.65
2019-05-17T17:00:33.658Z,23.61
2019-05-17T17:03:44.152Z,23.41
2019-05-17T17:06:46.382Z,23.35
2019-05-17T17:09:51.234Z,23.22
2019-05-17T17:12:56.144Z,23.18
2019-05-17T17:16:00.969Z,23.12
2019-05-17T17:19:07.670Z,23.11
2019-05-17T17:22:12.924Z,22.95
2019-05-17T17:25:17.905Z,22.94
2019-05-17T17:28:25.512Z,22.87
2019-05-17T17:31:29.795Z,22.67
2019-05-17T17:34:34.934Z,22.35
2019-05-17T17:37:39.789Z,22.08
2019-05-17T17:40:44.579Z,21.69
2019-05-17T17:43:57.917Z,21.11
2019-05-17T17:47:00.562Z,20.71
2019-05-17T17:50:05.961Z,20.49
2019-05-17T17:53:10.873Z,20.41
2019-05-17T17:56:15.942Z,19.98
2019-05-17T17:59:21.073Z,19.94
2019-05-17T18:02:25.905Z,19.91
2019-05-17T18:05:30.732Z,19.91
2019-05-17T18:08:35.795Z,19.88
2019-05-17T18:11:40.991Z,19.77
2019-05-17T18:14:45.805Z,19.43
2019-05-17T18:17:50.620Z,19.21
2019-05-17T18:20:55.999Z,19.20
2019-05-17T18:24:01.377Z,19.25
2019-05-17T18:27:06.379Z,19.26
2019-05-17T18:30:11.611Z,19.20
2019-05-17T18:33:16.351Z,19.14
2019-05-17T18:36:21.238Z,19.11
2019-05-17T18:39:26.081Z,19.08
2019-05-17T18:42:30.984Z,19.02
2019-05-17T18:45:36.269Z,19.01
2019-05-17T18:48:41.258Z,18.76
2019-05-17T18:51:46.138Z,18.81
2019-05-17T18:54:51.662Z,18.83
2019-05-17T18:57:56.644Z,18.78
2019-05-17T19:01:02.093Z,18.70
2019-05-17T19:04:07.402Z,18.69
2019-05-17T19:07:12.287Z,18.78
2019-05-17T19:10:17.373Z,18.69
2019-05-17T19:13:25.127Z,18.68
2019-05-17T19:16:30.297Z,18.66
2019-05-17T19:19:36.556Z,18.61
2019-05-17T19:22:41.465Z,18.60
2019-05-17T19:25:46.549Z,18.65
2019-05-17T19:28:54.369Z,18.63
2019-05-17T19:31:59.187Z,18.55
2019-05-17T19:35:04.310Z,18.46
2019-05-17T19:38:09.517Z,18.41
2019-05-17T19:41:14.811Z,18.19
2019-05-17T19:44:21.383Z,18.11
2019-05-17T19:47:26.190Z,17.92
2019-05-17T19:50:31.630Z,17.83
2019-05-17T19:53:36.493Z,17.72
2019-05-17T19:56:41.393Z,17.70
2019-05-17T19:59:46.249Z,17.51
2019-05-17T20:02:52.120Z,17.46
2019-05-17T20:05:57.261Z,17.46
2019-05-17T20:09:02.152Z,17.43
2019-05-17T20:12:08.726Z,17.25
2019-05-17T20:15:17.931Z,17.17
2019-05-17T20:18:20.354Z,17.10
2019-05-17T20:21:25.450Z,17.10
2019-05-17T20:24:30.605Z,17.13
2019-05-17T20:27:35.399Z,17.14
2019-05-17T20:30:40.578Z,17.19
2019-05-17T20:33:45.893Z,17.26
2019-05-17T20:36:50.925Z,17.21
2019-05-17T20:39:56.143Z,17.04
2019-05-17T20:43:00.963Z,17.00
2019-05-17T20:46:05.910Z,16.85
2019-05-17T20:49:11.187Z,16.80
2019-05-17T20:52:16.559Z,16.77
2019-05-17T20:55:23.307Z,16.71
2019-05-17T20:58:28.579Z,16.70
2019-05-17T21:01:33.346Z,16.70
2019-05-17T21:04:38.188Z,16.75
2019-05-17T21:07:43.161Z,16.54
2019-05-17T21:10:47.967Z,16.52
2019-05-17T21:13:52.763Z,16.50
2019-05-17T21:16:57.624Z,16.43
2019-05-17T21:20:02.543Z,16.31
2019-05-17T21:23:07.877Z,16.28
2019-05-17T21:26:12.724Z,16.39
2019-05-17T21:29:17.562Z,16.35
2019-05-17T21:32:22.284Z,16.04
2019-05-17T21:35:27.425Z,16.07
2019-05-17T21:38:35.676Z,15.99
2019-05-17T21:41:40.461Z,15.99
2019-05-17T21:44:45.225Z,16.06
2019-05-17T21:47:50.335Z,15.90
2019-05-17T21:50:55.103Z,15.90
2019-05-17T21:53:59.895Z,15.84
2019-05-17T21:57:04.922Z,15.64
2019-05-17T22:00:12.711Z,15.64
2019-05-17T22:03:22.520Z,15.57
2019-05-17T22:06:27.675Z,15.56
2019-05-17T22:09:32.560Z,15.48
2019-05-17T22:12:37.534Z,15.47
2019-05-17T22:15:42.972Z,15.54
2019-05-17T22:18:47.801Z,15.58
2019-05-17T22:21:52.648Z,15.59
2019-05-17T22:24:57.399Z,15.47
2019-05-17T22:28:02.187Z,15.49
2019-05-17T22:31:07.297Z,15.53
2019-05-17T22:34:12.125Z,15.47
2019-05-17T22:37:17.744Z,15.41
2019-05-17T22:40:22.514Z,15.39
2019-05-17T22:43:27.593Z,15.37
2019-05-17T22:46:36.458Z,15.32
2019-05-17T22:49:40.302Z,15.33
2019-05-17T22:52:46.274Z,15.29
2019-05-17T22:55:51.022Z,15.33
2019-05-17T22:58:56.475Z,15.33
2019-05-17T23:02:01.347Z,15.33
2019-05-17T23:05:06.543Z,15.39
2019-05-17T23:08:11.378Z,15.22
2019-05-17T23:11:16.159Z,15.12
2019-05-17T23:14:21.258Z,15.08
2019-05-17T23:17:26.342Z,15.08
2019-05-17T23:20:31.413Z,15.13
2019-05-17T23:23:36.668Z,15.09
2019-05-17T23:26:41.432Z,15.08
2019-05-17T23:29:46.520Z,15.17
2019-05-17T23:32:51.261Z,15.17
2019-05-17T23:35:56.584Z,15.14
2019-05-17T23:39:01.501Z,15.20
2019-05-17T23:42:07.867Z,15.14
2019-05-17T23:45:12.974Z,15.14
2019-05-17T23:48:17.743Z,15.23
2019-05-17T23:51:22.560Z,15.23
2019-05-17T23:54:27.602Z,15.20
2019-05-17T23:57:32.480Z,15.19
